sensor_id;sensor_type;location;lat;lon;timestamp;P1;durP1;ratioP1;P2;durP2;ratioP2
49051;SDS011;34866;48.670;18.260;2022-10-16T00:01:18;21.85;;;10.65;;
49051;SDS011;34866;48.670;18.260;2022-10-16T00:03:48;25.08;;;11.05;;
49051;SDS011;34866;48.670;18.260;2022-10-16T00:06:16;18.17;;;9.48;;
49051;SDS011;34866;48.670;18.260;2022-10-16T00:08:42;21.17;;;10.25;;
49051;SDS011;34866;48.670;18.260;2022-10-16T00:11:10;20.65;;;10.35;;
49051;SDS011;34866;48.670;18.260;2022-10-16T00:13:39;23.25;;;9.30;;
49051;SDS011;34866;48.670;18.260;2022-10-16T00:16:06;24.58;;;9.07;;
49051;SDS011;34866;48.670;18.260;2022-10-16T00:18:33;23.00;;;11.40;;
49051;SDS011;34866;48.670;18.260;2022-10-16T00:21:05;24.58;;;10.45;;
49051;SDS011;34866;48.670;18.260;2022-10-16T00:23:40;16.48;;;9.13;;
49051;SDS011;34866;48.670;18.260;2022-10-16T00:26:08;21.58;;;9.52;;
49051;SDS011;34866;48.670;18.260;2022-10-16T00:28:36;19.13;;;9.48;;
49051;SDS011;34866;48.670;18.260;2022-10-16T00:31:06;20.60;;;10.68;;
49051;SDS011;34866;48.670;18.260;2022-10-16T00:33:33;19.30;;;9.50;;
49051;SDS011;34866;48.670;18.260;2022-10-16T00:36:00;19.80;;;9.73;;
49051;SDS011;34866;48.670;18.260;2022-10-16T00:38:28;18.52;;;8.95;;
49051;SDS011;34866;48.670;18.260;2022-10-16T00:40:56;19.60;;;10.38;;
49051;SDS011;34866;48.670;18.260;2022-10-16T00:43:33;24.20;;;10.20;;
49051;SDS011;34866;48.670;18.260;2022-10-16T00:46:17;24.85;;;10.02;;
49051;SDS011;34866;48.670;18.260;2022-10-16T00:48:49;18.98;;;9.18;;
49051;SDS011;34866;48.670;18.260;2022-10-16T00:51:25;19.92;;;10.00;;
49051;SDS011;34866;48.670;18.260;2022-10-16T00:53:56;17.80;;;9.68;;
49051;SDS011;34866;48.670;18.260;2022-10-16T00:56:22;19.55;;;10.10;;
49051;SDS011;34866;48.670;18.260;2022-10-16T00:58:48;19.30;;;10.23;;
49051;SDS011;34866;48.670;18.260;2022-10-16T01:01:15;18.08;;;9.65;;
49051;SDS011;34866;48.670;18.260;2022-10-16T01:03:41;18.30;;;9.57;;
49051;SDS011;34866;48.670;18.260;2022-10-16T01:09:02;24.38;;;10.05;;
49051;SDS011;34866;48.670;18.260;2022-10-16T01:14:47;20.10;;;9.07;;
49051;SDS011;34866;48.670;18.260;2022-10-16T01:17:35;21.15;;;10.25;;
49051;SDS011;34866;48.670;18.260;2022-10-16T01:20:30;27.40;;;11.45;;
49051;SDS011;34866;48.670;18.260;2022-10-16T01:28:21;19.63;;;9.57;;
49051;SDS011;34866;48.670;18.260;2022-10-16T01:30:53;25.75;;;12.35;;
49051;SDS011;34866;48.670;18.260;2022-10-16T01:33:27;21.80;;;10.85;;
49051;SDS011;34866;48.670;18.260;2022-10-16T01:36:07;17.20;;;9.63;;
49051;SDS011;34866;48.670;18.260;2022-10-16T01:38:39;17.92;;;10.18;;
49051;SDS011;34866;48.670;18.260;2022-10-16T01:41:10;23.40;;;9.70;;
49051;SDS011;34866;48.670;18.260;2022-10-16T01:43:46;20.33;;;10.07;;
49051;SDS011;34866;48.670;18.260;2022-10-16T01:46:18;16.30;;;9.48;;
49051;SDS011;34866;48.670;18.260;2022-10-16T01:48:47;20.27;;;10.20;;
49051;SDS011;34866;48.670;18.260;2022-10-16T01:51:15;19.90;;;10.82;;
49051;SDS011;34866;48.670;18.260;2022-10-16T01:53:47;25.83;;;10.38;;
49051;SDS011;34866;48.670;18.260;2022-10-16T01:56:18;20.75;;;10.70;;
49051;SDS011;34866;48.670;18.260;2022-10-16T02:01:40;19.85;;;9.38;;
49051;SDS011;34866;48.670;18.260;2022-10-16T02:07:04;21.25;;;10.43;;
49051;SDS011;34866;48.670;18.260;2022-10-16T02:09:32;23.27;;;9.52;;
49051;SDS011;34866;48.670;18.260;2022-10-16T02:12:00;19.27;;;10.52;;
49051;SDS011;34866;48.670;18.260;2022-10-16T02:14:37;20.83;;;10.85;;
49051;SDS011;34866;48.670;18.260;2022-10-16T02:17:10;20.52;;;9.43;;
49051;SDS011;34866;48.670;18.260;2022-10-16T02:19:38;23.42;;;10.65;;
49051;SDS011;34866;48.670;18.260;2022-10-16T02:22:05;28.48;;;10.38;;
49051;SDS011;34866;48.670;18.260;2022-10-16T02:30:20;19.70;;;9.73;;
49051;SDS011;34866;48.670;18.260;2022-10-16T02:33:10;23.30;;;11.05;;
49051;SDS011;34866;48.670;18.260;2022-10-16T02:35:41;18.23;;;10.57;;
49051;SDS011;34866;48.670;18.260;2022-10-16T02:38:11;26.67;;;11.90;;
49051;SDS011;34866;48.670;18.260;2022-10-16T02:40:46;21.85;;;9.88;;
49051;SDS011;34866;48.670;18.260;2022-10-16T02:43:19;21.55;;;11.85;;
49051;SDS011;34866;48.670;18.260;2022-10-16T02:45:45;21.75;;;10.40;;
49051;SDS011;34866;48.670;18.260;2022-10-16T02:48:12;20.40;;;11.27;;
49051;SDS011;34866;48.670;18.260;2022-10-16T02:50:37;23.45;;;10.95;;
49051;SDS011;34866;48.670;18.260;2022-10-16T02:53:04;20.40;;;10.70;;
49051;SDS011;34866;48.670;18.260;2022-10-16T02:55:30;17.98;;;10.05;;
49051;SDS011;34866;48.670;18.260;2022-10-16T02:57:57;21.90;;;10.70;;
49051;SDS011;34866;48.670;18.260;2022-10-16T03:00:23;20.50;;;10.13;;
49051;SDS011;34866;48.670;18.260;2022-10-16T03:02:49;26.45;;;11.07;;
49051;SDS011;34866;48.670;18.260;2022-10-16T03:05:17;20.48;;;10.77;;
49051;SDS011;34866;48.670;18.260;2022-10-16T03:08:03;20.33;;;9.27;;
49051;SDS011;34866;48.670;18.260;2022-10-16T03:10:31;22.70;;;10.55;;
49051;SDS011;34866;48.670;18.260;2022-10-16T03:12:56;17.52;;;10.75;;
49051;SDS011;34866;48.670;18.260;2022-10-16T03:15:22;19.95;;;10.27;;
49051;SDS011;34866;48.670;18.260;2022-10-16T03:17:52;23.67;;;10.50;;
49051;SDS011;34866;48.670;18.260;2022-10-16T03:20:24;23.58;;;10.70;;
49051;SDS011;34866;48.670;18.260;2022-10-16T03:22:50;22.27;;;10.98;;
49051;SDS011;34866;48.670;18.260;2022-10-16T03:25:16;19.25;;;9.32;;
49051;SDS011;34866;48.670;18.260;2022-10-16T03:27:41;26.58;;;11.05;;
49051;SDS011;34866;48.670;18.260;2022-10-16T03:30:13;24.20;;;10.35;;
49051;SDS011;34866;48.670;18.260;2022-10-16T03:32:39;19.40;;;9.98;;
49051;SDS011;34866;48.670;18.260;2022-10-16T03:35:05;19.30;;;10.57;;
49051;SDS011;34866;48.670;18.260;2022-10-16T03:37:31;19.73;;;9.43;;
49051;SDS011;34866;48.670;18.260;2022-10-16T03:39:57;19.45;;;9.45;;
49051;SDS011;34866;48.670;18.260;2022-10-16T03:42:22;23.15;;;9.75;;
49051;SDS011;34866;48.670;18.260;2022-10-16T03:44:52;21.38;;;10.02;;
49051;SDS011;34866;48.670;18.260;2022-10-16T03:47:18;17.60;;;10.45;;
49051;SDS011;34866;48.670;18.260;2022-10-16T03:49:46;20.75;;;9.80;;
49051;SDS011;34866;48.670;18.260;2022-10-16T03:52:12;20.80;;;9.85;;
49051;SDS011;34866;48.670;18.260;2022-10-16T03:54:40;20.88;;;9.57;;
49051;SDS011;34866;48.670;18.260;2022-10-16T03:57:05;18.02;;;10.43;;
49051;SDS011;34866;48.670;18.260;2022-10-16T03:59:32;19.00;;;10.27;;
49051;SDS011;34866;48.670;18.260;2022-10-16T04:01:57;19.60;;;9.60;;
49051;SDS011;34866;48.670;18.260;2022-10-16T04:04:23;18.42;;;10.15;;
49051;SDS011;34866;48.670;18.260;2022-10-16T04:06:50;18.63;;;10.00;;
49051;SDS011;34866;48.670;18.260;2022-10-16T04:09:16;21.63;;;11.15;;
49051;SDS011;34866;48.670;18.260;2022-10-16T04:11:42;20.83;;;10.50;;
49051;SDS011;34866;48.670;18.260;2022-10-16T04:14:08;21.58;;;10.23;;
49051;SDS011;34866;48.670;18.260;2022-10-16T04:16:40;18.85;;;10.95;;
49051;SDS011;34866;48.670;18.260;2022-10-16T04:19:05;18.52;;;9.35;;
49051;SDS011;34866;48.670;18.260;2022-10-16T04:21:31;20.70;;;10.15;;
49051;SDS011;34866;48.670;18.260;2022-10-16T04:23:56;20.17;;;9.80;;
49051;SDS011;34866;48.670;18.260;2022-10-16T04:26:28;23.05;;;10.50;;
49051;SDS011;34866;48.670;18.260;2022-10-16T04:28:57;18.95;;;9.77;;
49051;SDS011;34866;48.670;18.260;2022-10-16T04:31:23;26.27;;;9.38;;
49051;SDS011;34866;48.670;18.260;2022-10-16T04:33:49;19.85;;;9.30;;
49051;SDS011;34866;48.670;18.260;2022-10-16T04:36:14;24.30;;;9.68;;
49051;SDS011;34866;48.670;18.260;2022-10-16T04:38:40;16.63;;;9.05;;
49051;SDS011;34866;48.670;18.260;2022-10-16T04:41:06;17.30;;;9.43;;
49051;SDS011;34866;48.670;18.260;2022-10-16T04:43:32;16.33;;;8.88;;
49051;SDS011;34866;48.670;18.260;2022-10-16T04:45:59;17.50;;;9.55;;
49051;SDS011;34866;48.670;18.260;2022-10-16T04:48:25;17.05;;;8.25;;
49051;SDS011;34866;48.670;18.260;2022-10-16T04:50:51;19.83;;;9.57;;
49051;SDS011;34866;48.670;18.260;2022-10-16T04:53:17;15.82;;;9.10;;
49051;SDS011;34866;48.670;18.260;2022-10-16T04:55:44;17.98;;;9.75;;
49051;SDS011;34866;48.670;18.260;2022-10-16T04:58:09;15.77;;;8.93;;
49051;SDS011;34866;48.670;18.260;2022-10-16T05:00:35;20.70;;;8.60;;
49051;SDS011;34866;48.670;18.260;2022-10-16T05:03:03;15.75;;;8.95;;
49051;SDS011;34866;48.670;18.260;2022-10-16T05:05:32;19.95;;;9.32;;
49051;SDS011;34866;48.670;18.260;2022-10-16T05:08:03;15.50;;;8.27;;
49051;SDS011;34866;48.670;18.260;2022-10-16T05:10:29;22.10;;;10.30;;
49051;SDS011;34866;48.670;18.260;2022-10-16T05:12:55;19.27;;;8.73;;
49051;SDS011;34866;48.670;18.260;2022-10-16T05:15:20;21.95;;;10.27;;
49051;SDS011;34866;48.670;18.260;2022-10-16T05:17:54;19.05;;;10.88;;
49051;SDS011;34866;48.670;18.260;2022-10-16T05:20:20;22.08;;;11.02;;
49051;SDS011;34866;48.670;18.260;2022-10-16T05:22:46;20.15;;;10.00;;
49051;SDS011;34866;48.670;18.260;2022-10-16T05:25:11;18.98;;;9.15;;
49051;SDS011;34866;48.670;18.260;2022-10-16T05:27:37;13.43;;;8.10;;
49051;SDS011;34866;48.670;18.260;2022-10-16T05:30:03;14.45;;;7.97;;
49051;SDS011;34866;48.670;18.260;2022-10-16T05:32:29;15.95;;;8.93;;
49051;SDS011;34866;48.670;18.260;2022-10-16T05:34:55;25.60;;;8.93;;
49051;SDS011;34866;48.670;18.260;2022-10-16T05:37:21;25.00;;;9.63;;
49051;SDS011;34866;48.670;18.260;2022-10-16T05:39:47;18.48;;;9.48;;
49051;SDS011;34866;48.670;18.260;2022-10-16T05:42:14;22.38;;;9.18;;
49051;SDS011;34866;48.670;18.260;2022-10-16T05:44:40;17.33;;;8.85;;
49051;SDS011;34866;48.670;18.260;2022-10-16T05:47:05;14.95;;;8.82;;
49051;SDS011;34866;48.670;18.260;2022-10-16T05:49:31;16.65;;;9.20;;
49051;SDS011;34866;48.670;18.260;2022-10-16T05:51:58;16.33;;;9.40;;
49051;SDS011;34866;48.670;18.260;2022-10-16T05:54:25;17.13;;;9.52;;
49051;SDS011;34866;48.670;18.260;2022-10-16T05:56:54;18.73;;;9.88;;
49051;SDS011;34866;48.670;18.260;2022-10-16T05:59:21;21.85;;;9.35;;
49051;SDS011;34866;48.670;18.260;2022-10-16T06:01:46;19.38;;;9.00;;
49051;SDS011;34866;48.670;18.260;2022-10-16T06:04:36;18.85;;;9.68;;
49051;SDS011;34866;48.670;18.260;2022-10-16T06:07:07;21.23;;;10.70;;
49051;SDS011;34866;48.670;18.260;2022-10-16T06:09:33;19.08;;;9.73;;
49051;SDS011;34866;48.670;18.260;2022-10-16T06:11:58;14.02;;;8.02;;
49051;SDS011;34866;48.670;18.260;2022-10-16T06:14:24;19.35;;;9.35;;
49051;SDS011;34866;48.670;18.260;2022-10-16T06:16:50;21.35;;;8.85;;
49051;SDS011;34866;48.670;18.260;2022-10-16T06:19:15;21.85;;;8.63;;
49051;SDS011;34866;48.670;18.260;2022-10-16T06:21:42;15.73;;;9.43;;
49051;SDS011;34866;48.670;18.260;2022-10-16T06:24:08;18.92;;;8.57;;
49051;SDS011;34866;48.670;18.260;2022-10-16T06:26:34;15.68;;;8.43;;
49051;SDS011;34866;48.670;18.260;2022-10-16T06:29:00;20.20;;;9.68;;
49051;SDS011;34866;48.670;18.260;2022-10-16T06:31:26;15.27;;;8.20;;
49051;SDS011;34866;48.670;18.260;2022-10-16T06:33:56;20.15;;;8.93;;
49051;SDS011;34866;48.670;18.260;2022-10-16T06:36:22;17.48;;;8.90;;
49051;SDS011;34866;48.670;18.260;2022-10-16T06:38:49;14.27;;;8.88;;
49051;SDS011;34866;48.670;18.260;2022-10-16T06:41:16;23.35;;;11.15;;
49051;SDS011;34866;48.670;18.260;2022-10-16T06:43:43;19.33;;;10.13;;
49051;SDS011;34866;48.670;18.260;2022-10-16T06:46:12;16.00;;;10.13;;
49051;SDS011;34866;48.670;18.260;2022-10-16T06:48:39;19.23;;;10.43;;
49051;SDS011;34866;48.670;18.260;2022-10-16T06:51:16;16.35;;;9.60;;
49051;SDS011;34866;48.670;18.260;2022-10-16T06:53:47;18.55;;;10.63;;
49051;SDS011;34866;48.670;18.260;2022-10-16T06:56:19;19.13;;;10.15;;
49051;SDS011;34866;48.670;18.260;2022-10-16T06:58:52;16.67;;;9.15;;
49051;SDS011;34866;48.670;18.260;2022-10-16T07:01:19;18.25;;;9.65;;
49051;SDS011;34866;48.670;18.260;2022-10-16T07:03:47;20.20;;;9.30;;
49051;SDS011;34866;48.670;18.260;2022-10-16T07:06:14;17.42;;;8.73;;
49051;SDS011;34866;48.670;18.260;2022-10-16T07:08:42;19.85;;;9.85;;
49051;SDS011;34866;48.670;18.260;2022-10-16T07:11:14;18.02;;;8.68;;
49051;SDS011;34866;48.670;18.260;2022-10-16T07:13:55;18.63;;;8.60;;
49051;SDS011;34866;48.670;18.260;2022-10-16T07:16:28;19.95;;;9.52;;
49051;SDS011;34866;48.670;18.260;2022-10-16T07:18:56;17.33;;;8.68;;
49051;SDS011;34866;48.670;18.260;2022-10-16T07:21:24;17.13;;;8.40;;
49051;SDS011;34866;48.670;18.260;2022-10-16T07:23:56;18.40;;;8.80;;
49051;SDS011;34866;48.670;18.260;2022-10-16T07:26:23;24.85;;;9.90;;
49051;SDS011;34866;48.670;18.260;2022-10-16T07:28:50;18.35;;;7.93;;
49051;SDS011;34866;48.670;18.260;2022-10-16T07:31:17;18.60;;;9.23;;
49051;SDS011;34866;48.670;18.260;2022-10-16T07:33:44;16.48;;;9.32;;
49051;SDS011;34866;48.670;18.260;2022-10-16T07:36:13;18.10;;;8.68;;
49051;SDS011;34866;48.670;18.260;2022-10-16T07:38:39;17.73;;;10.02;;
49051;SDS011;34866;48.670;18.260;2022-10-16T07:41:07;19.60;;;8.75;;
49051;SDS011;34866;48.670;18.260;2022-10-16T07:43:38;18.98;;;9.00;;
49051;SDS011;34866;48.670;18.260;2022-10-16T07:46:07;16.83;;;8.25;;
49051;SDS011;34866;48.670;18.260;2022-10-16T07:48:33;17.42;;;8.68;;
49051;SDS011;34866;48.670;18.260;2022-10-16T07:51:00;23.15;;;9.63;;
49051;SDS011;34866;48.670;18.260;2022-10-16T07:53:27;20.33;;;8.50;;
49051;SDS011;34866;48.670;18.260;2022-10-16T07:55:57;23.63;;;8.80;;
49051;SDS011;34866;48.670;18.260;2022-10-16T07:58:27;16.95;;;8.25;;
49051;SDS011;34866;48.670;18.260;2022-10-16T08:00:54;20.80;;;9.25;;
49051;SDS011;34866;48.670;18.260;2022-10-16T08:03:20;18.05;;;9.02;;
49051;SDS011;34866;48.670;18.260;2022-10-16T08:05:46;19.40;;;9.27;;
49051;SDS011;34866;48.670;18.260;2022-10-16T08:08:13;28.27;;;9.70;;
49051;SDS011;34866;48.670;18.260;2022-10-16T08:10:40;17.88;;;8.13;;
49051;SDS011;34866;48.670;18.260;2022-10-16T08:13:05;16.95;;;8.10;;
49051;SDS011;34866;48.670;18.260;2022-10-16T08:15:31;14.23;;;8.10;;
49051;SDS011;34866;48.670;18.260;2022-10-16T08:18:02;15.98;;;8.18;;
49051;SDS011;34866;48.670;18.260;2022-10-16T08:20:29;15.45;;;7.35;;
49051;SDS011;34866;48.670;18.260;2022-10-16T08:23:22;14.73;;;7.32;;
49051;SDS011;34866;48.670;18.260;2022-10-16T08:25:48;19.70;;;8.27;;
49051;SDS011;34866;48.670;18.260;2022-10-16T08:28:13;16.63;;;8.05;;
49051;SDS011;34866;48.670;18.260;2022-10-16T08:30:40;13.48;;;8.05;;
49051;SDS011;34866;48.670;18.260;2022-10-16T08:33:06;22.85;;;7.97;;
49051;SDS011;34866;48.670;18.260;2022-10-16T08:35:32;17.77;;;8.63;;
49051;SDS011;34866;48.670;18.260;2022-10-16T08:38:02;14.00;;;8.15;;
49051;SDS011;34866;48.670;18.260;2022-10-16T08:40:31;20.88;;;8.63;;
49051;SDS011;34866;48.670;18.260;2022-10-16T08:46:21;16.20;;;9.33;;
49051;SDS011;34866;48.670;18.260;2022-10-16T08:48:58;15.23;;;7.93;;
49051;SDS011;34866;48.670;18.260;2022-10-16T08:51:32;17.10;;;8.35;;
49051;SDS011;34866;48.670;18.260;2022-10-16T08:54:12;18.98;;;8.27;;
49051;SDS011;34866;48.670;18.260;2022-10-16T08:57:07;17.30;;;8.43;;
49051;SDS011;34866;48.670;18.260;2022-10-16T08:59:34;20.05;;;8.48;;
49051;SDS011;34866;48.670;18.260;2022-10-16T09:02:00;17.00;;;7.50;;
49051;SDS011;34866;48.670;18.260;2022-10-16T09:10:03;18.52;;;8.27;;
49051;SDS011;34866;48.670;18.260;2022-10-16T09:19:02;21.08;;;8.57;;
49051;SDS011;34866;48.670;18.260;2022-10-16T09:21:33;13.55;;;8.32;;
49051;SDS011;34866;48.670;18.260;2022-10-16T09:24:16;16.95;;;7.78;;
49051;SDS011;34866;48.670;18.260;2022-10-16T09:26:44;16.45;;;6.85;;
49051;SDS011;34866;48.670;18.260;2022-10-16T09:29:14;16.23;;;7.30;;
49051;SDS011;34866;48.670;18.260;2022-10-16T09:31:41;17.08;;;7.70;;
49051;SDS011;34866;48.670;18.260;2022-10-16T09:34:13;21.10;;;7.75;;
49051;SDS011;34866;48.670;18.260;2022-10-16T09:36:44;20.35;;;8.85;;
49051;SDS011;34866;48.670;18.260;2022-10-16T09:39:11;20.13;;;9.00;;
49051;SDS011;34866;48.670;18.260;2022-10-16T09:41:39;15.25;;;7.68;;
49051;SDS011;34866;48.670;18.260;2022-10-16T09:44:18;14.60;;;7.30;;
49051;SDS011;34866;48.670;18.260;2022-10-16T09:46:45;20.80;;;9.18;;
49051;SDS011;34866;48.670;18.260;2022-10-16T09:49:21;20.67;;;8.00;;
49051;SDS011;34866;48.670;18.260;2022-10-16T09:51:51;15.70;;;7.40;;
49051;SDS011;34866;48.670;18.260;2022-10-16T09:54:35;12.95;;;7.20;;
49051;SDS011;34866;48.670;18.260;2022-10-16T09:57:13;15.40;;;6.53;;
49051;SDS011;34866;48.670;18.260;2022-10-16T09:59:49;15.60;;;8.02;;
49051;SDS011;34866;48.670;18.260;2022-10-16T10:02:23;13.65;;;7.18;;
49051;SDS011;34866;48.670;18.260;2022-10-16T10:04:55;17.05;;;8.45;;
49051;SDS011;34866;48.670;18.260;2022-10-16T10:07:25;12.48;;;7.07;;
49051;SDS011;34866;48.670;18.260;2022-10-16T10:09:54;12.35;;;6.55;;
49051;SDS011;34866;48.670;18.260;2022-10-16T10:12:24;12.02;;;6.63;;
49051;SDS011;34866;48.670;18.260;2022-10-16T10:14:51;12.73;;;6.63;;
49051;SDS011;34866;48.670;18.260;2022-10-16T10:17:22;12.70;;;5.78;;
49051;SDS011;34866;48.670;18.260;2022-10-16T10:19:53;15.13;;;6.78;;
49051;SDS011;34866;48.670;18.260;2022-10-16T10:30:38;13.13;;;6.18;;
49051;SDS011;34866;48.670;18.260;2022-10-16T10:36:22;12.80;;;6.20;;
49051;SDS011;34866;48.670;18.260;2022-10-16T10:50:34;12.05;;;5.80;;
49051;SDS011;34866;48.670;18.260;2022-10-16T11:07:22;12.10;;;5.47;;
49051;SDS011;34866;48.670;18.260;2022-10-16T11:09:55;11.10;;;5.45;;
49051;SDS011;34866;48.670;18.260;2022-10-16T11:12:35;14.88;;;6.30;;
49051;SDS011;34866;48.670;18.260;2022-10-16T11:15:07;11.13;;;5.38;;
49051;SDS011;34866;48.670;18.260;2022-10-16T11:17:48;11.88;;;5.97;;
49051;SDS011;34866;48.670;18.260;2022-10-16T11:20:24;21.42;;;7.15;;
49051;SDS011;34866;48.670;18.260;2022-10-16T11:22:58;12.02;;;5.95;;
49051;SDS011;34866;48.670;18.260;2022-10-16T11:25:30;15.25;;;6.65;;
49051;SDS011;34866;48.670;18.260;2022-10-16T11:33:47;18.88;;;6.85;;
49051;SDS011;34866;48.670;18.260;2022-10-16T11:36:27;13.15;;;6.68;;
49051;SDS011;34866;48.670;18.260;2022-10-16T11:39:21;11.82;;;6.97;;
49051;SDS011;34866;48.670;18.260;2022-10-16T11:49:47;16.23;;;7.05;;
49051;SDS011;34866;48.670;18.260;2022-10-16T11:52:33;18.63;;;7.05;;
49051;SDS011;34866;48.670;18.260;2022-10-16T11:57:42;13.48;;;6.80;;
49051;SDS011;34866;48.670;18.260;2022-10-16T12:08:17;17.13;;;8.63;;
49051;SDS011;34866;48.670;18.260;2022-10-16T12:10:45;17.13;;;8.65;;
49051;SDS011;34866;48.670;18.260;2022-10-16T12:13:32;15.32;;;7.57;;
49051;SDS011;34866;48.670;18.260;2022-10-16T12:18:45;13.25;;;6.82;;
49051;SDS011;34866;48.670;18.260;2022-10-16T12:21:32;14.60;;;7.38;;
49051;SDS011;34866;48.670;18.260;2022-10-16T12:24:04;17.08;;;7.63;;
49051;SDS011;34866;48.670;18.260;2022-10-16T12:26:38;14.07;;;7.07;;
49051;SDS011;34866;48.670;18.260;2022-10-16T12:29:23;14.55;;;7.00;;
49051;SDS011;34866;48.670;18.260;2022-10-16T12:35:01;13.88;;;7.03;;
49051;SDS011;34866;48.670;18.260;2022-10-16T12:37:32;13.45;;;7.25;;
49051;SDS011;34866;48.670;18.260;2022-10-16T12:40:11;17.88;;;7.53;;
49051;SDS011;34866;48.670;18.260;2022-10-16T12:42:40;14.63;;;7.90;;
49051;SDS011;34866;48.670;18.260;2022-10-16T12:48:20;15.63;;;6.90;;
49051;SDS011;34866;48.670;18.260;2022-10-16T12:50:48;12.95;;;7.38;;
49051;SDS011;34866;48.670;18.260;2022-10-16T12:53:24;16.35;;;7.78;;
49051;SDS011;34866;48.670;18.260;2022-10-16T13:09:27;15.30;;;6.90;;
49051;SDS011;34866;48.670;18.260;2022-10-16T13:12:18;13.70;;;7.13;;
49051;SDS011;34866;48.670;18.260;2022-10-16T13:20:40;14.52;;;7.25;;
49051;SDS011;34866;48.670;18.260;2022-10-16T13:29:15;14.32;;;8.00;;
49051;SDS011;34866;48.670;18.260;2022-10-16T13:31:44;19.55;;;7.75;;
49051;SDS011;34866;48.670;18.260;2022-10-16T13:34:17;16.98;;;8.45;;
49051;SDS011;34866;48.670;18.260;2022-10-16T13:36:46;13.52;;;7.07;;
49051;SDS011;34866;48.670;18.260;2022-10-16T13:39:26;13.95;;;7.88;;
49051;SDS011;34866;48.670;18.260;2022-10-16T13:44:28;17.05;;;7.22;;
49051;SDS011;34866;48.670;18.260;2022-10-16T13:47:02;15.57;;;7.35;;
49051;SDS011;34866;48.670;18.260;2022-10-16T13:49:28;13.93;;;7.28;;
49051;SDS011;34866;48.670;18.260;2022-10-16T13:51:54;17.17;;;7.85;;
49051;SDS011;34866;48.670;18.260;2022-10-16T13:54:21;15.35;;;8.05;;
49051;SDS011;34866;48.670;18.260;2022-10-16T13:56:48;16.02;;;7.28;;
49051;SDS011;34866;48.670;18.260;2022-10-16T14:02:50;15.80;;;8.67;;
49051;SDS011;34866;48.670;18.260;2022-10-16T14:04:59;18.25;;;7.90;;
49051;SDS011;34866;48.670;18.260;2022-10-16T14:07:31;17.48;;;7.97;;
49051;SDS011;34866;48.670;18.260;2022-10-16T14:10:22;16.02;;;8.40;;
49051;SDS011;34866;48.670;18.260;2022-10-16T14:13:02;19.17;;;7.47;;
49051;SDS011;34866;48.670;18.260;2022-10-16T14:15:31;13.80;;;7.50;;
49051;SDS011;34866;48.670;18.260;2022-10-16T14:17:58;21.10;;;8.05;;
49051;SDS011;34866;48.670;18.260;2022-10-16T14:20:26;15.70;;;8.02;;
49051;SDS011;34866;48.670;18.260;2022-10-16T14:23:37;15.45;;;7.30;;
49051;SDS011;34866;48.670;18.260;2022-10-16T14:25:45;16.80;;;7.68;;
49051;SDS011;34866;48.670;18.260;2022-10-16T14:30:51;17.95;;;7.95;;
49051;SDS011;34866;48.670;18.260;2022-10-16T14:33:25;15.70;;;7.63;;
49051;SDS011;34866;48.670;18.260;2022-10-16T14:38:38;14.80;;;7.18;;
49051;SDS011;34866;48.670;18.260;2022-10-16T14:41:14;13.80;;;7.85;;
49051;SDS011;34866;48.670;18.260;2022-10-16T14:43:41;16.45;;;7.13;;
49051;SDS011;34866;48.670;18.260;2022-10-16T14:49:13;20.02;;;7.70;;
49051;SDS011;34866;48.670;18.260;2022-10-16T14:51:45;12.93;;;6.30;;
49051;SDS011;34866;48.670;18.260;2022-10-16T14:54:11;13.38;;;6.70;;
49051;SDS011;34866;48.670;18.260;2022-10-16T14:56:54;14.68;;;6.97;;
49051;SDS011;34866;48.670;18.260;2022-10-16T14:59:28;14.80;;;7.05;;
49051;SDS011;34866;48.670;18.260;2022-10-16T15:01:58;14.45;;;7.43;;
49051;SDS011;34866;48.670;18.260;2022-10-16T15:04:24;14.40;;;6.57;;
49051;SDS011;34866;48.670;18.260;2022-10-16T15:06:49;16.58;;;6.82;;
49051;SDS011;34866;48.670;18.260;2022-10-16T15:09:15;15.02;;;7.70;;
49051;SDS011;34866;48.670;18.260;2022-10-16T15:11:41;12.50;;;7.20;;
49051;SDS011;34866;48.670;18.260;2022-10-16T15:14:13;17.15;;;7.43;;
49051;SDS011;34866;48.670;18.260;2022-10-16T15:16:39;14.85;;;8.32;;
49051;SDS011;34866;48.670;18.260;2022-10-16T15:19:05;13.73;;;7.07;;
49051;SDS011;34866;48.670;18.260;2022-10-16T15:21:33;13.25;;;6.68;;
49051;SDS011;34866;48.670;18.260;2022-10-16T15:23:59;16.15;;;6.40;;
49051;SDS011;34866;48.670;18.260;2022-10-16T15:26:26;14.38;;;6.18;;
49051;SDS011;34866;48.670;18.260;2022-10-16T15:28:54;15.27;;;7.15;;
49051;SDS011;34866;48.670;18.260;2022-10-16T15:31:20;13.77;;;6.60;;
49051;SDS011;34866;48.670;18.260;2022-10-16T15:33:49;12.38;;;6.22;;
49051;SDS011;34866;48.670;18.260;2022-10-16T15:36:24;20.90;;;7.07;;
49051;SDS011;34866;48.670;18.260;2022-10-16T15:38:51;15.10;;;6.25;;
49051;SDS011;34866;48.670;18.260;2022-10-16T15:41:18;11.98;;;6.63;;
49051;SDS011;34866;48.670;18.260;2022-10-16T15:43:45;14.82;;;6.78;;
49051;SDS011;34866;48.670;18.260;2022-10-16T15:46:15;10.88;;;6.07;;
49051;SDS011;34866;48.670;18.260;2022-10-16T15:48:47;11.90;;;6.68;;
49051;SDS011;34866;48.670;18.260;2022-10-16T15:51:16;18.20;;;7.90;;
49051;SDS011;34866;48.670;18.260;2022-10-16T15:53:44;17.60;;;7.97;;
49051;SDS011;34866;48.670;18.260;2022-10-16T15:56:11;20.35;;;7.45;;
49051;SDS011;34866;48.670;18.260;2022-10-16T15:58:38;19.00;;;9.38;;
49051;SDS011;34866;48.670;18.260;2022-10-16T16:01:04;17.55;;;7.63;;
49051;SDS011;34866;48.670;18.260;2022-10-16T16:03:30;29.60;;;8.32;;
49051;SDS011;34866;48.670;18.260;2022-10-16T16:06:03;18.33;;;9.10;;
49051;SDS011;34866;48.670;18.260;2022-10-16T16:08:33;20.48;;;9.10;;
49051;SDS011;34866;48.670;18.260;2022-10-16T16:11:12;15.13;;;8.52;;
49051;SDS011;34866;48.670;18.260;2022-10-16T16:13:41;19.25;;;9.02;;
49051;SDS011;34866;48.670;18.260;2022-10-16T16:16:07;17.08;;;8.55;;
49051;SDS011;34866;48.670;18.260;2022-10-16T16:18:34;14.65;;;7.28;;
49051;SDS011;34866;48.670;18.260;2022-10-16T16:21:01;18.20;;;8.20;;
49051;SDS011;34866;48.670;18.260;2022-10-16T16:23:27;18.55;;;9.25;;
49051;SDS011;34866;48.670;18.260;2022-10-16T16:28:39;32.35;;;9.40;;
49051;SDS011;34866;48.670;18.260;2022-10-16T16:31:08;36.65;;;12.95;;
49051;SDS011;34866;48.670;18.260;2022-10-16T16:33:37;15.25;;;7.65;;
49051;SDS011;34866;48.670;18.260;2022-10-16T16:36:04;15.68;;;7.88;;
49051;SDS011;34866;48.670;18.260;2022-10-16T16:38:31;22.70;;;8.50;;
49051;SDS011;34866;48.670;18.260;2022-10-16T16:40:58;16.95;;;8.20;;
49051;SDS011;34866;48.670;18.260;2022-10-16T16:43:24;13.85;;;8.05;;
49051;SDS011;34866;48.670;18.260;2022-10-16T16:45:51;16.33;;;8.32;;
49051;SDS011;34866;48.670;18.260;2022-10-16T16:48:18;16.77;;;8.18;;
49051;SDS011;34866;48.670;18.260;2022-10-16T16:50:44;16.30;;;7.93;;
49051;SDS011;34866;48.670;18.260;2022-10-16T16:53:13;15.48;;;7.53;;
49051;SDS011;34866;48.670;18.260;2022-10-16T16:55:38;18.85;;;7.45;;
49051;SDS011;34866;48.670;18.260;2022-10-16T16:58:05;13.50;;;7.28;;
49051;SDS011;34866;48.670;18.260;2022-10-16T17:00:30;16.33;;;7.72;;
49051;SDS011;34866;48.670;18.260;2022-10-16T17:02:59;15.20;;;7.45;;
49051;SDS011;34866;48.670;18.260;2022-10-16T17:05:25;14.95;;;7.22;;